Time;durP1;ratioP1;P1;durP2;ratioP2;P2;SDS_P1;SDS_P2;PMS_P1;PMS_P2;Temp;Humidity;BMP_temperature;BMP_pressure;BME280_temperature;BME280_humidity;BME280_pressure;Samples;Min_cycle;Max_cycle;Signal;HPM_P1;HPM_P2
2022/11/30 06:31:54;;;;;;;34.93;17.23;;;4.40;99.90;;;;;;6186572;23;20074;-92
2022/11/30 06:34:46;;;;;;;35.37;17.13;;;6.10;99.90;;;;;;6186137;23;20040;-92
2022/11/30 06:37:21;;;;;;;32.10;16.83;;;5.20;99.90;;;;;;6156686;23;20519;-88
2022/11/30 06:39:47;;;;;;;38.20;17.87;;;5.10;99.90;;;;;;6158014;23;20024;-89
2022/11/30 06:46:26;;;;;;;31.83;16.43;;;5.40;99.90;;;;;;6006731;23;20023;-89
2022/11/30 06:49:20;;;;;;;32.93;16.10;;;5.80;99.90;;;;;;6007543;23;20450;-87
2022/11/30 06:51:45;;;;;;;28.97;15.53;;;6.10;99.90;;;;;;6007376;23;20043;-87
2022/11/30 06:54:20;;;;;;;31.43;16.13;;;5.20;99.90;;;;;;6114162;23;20415;-88
2022/11/30 06:56:47;;;;;;;34.60;15.60;;;4.90;99.90;;;;;;6155282;23;20036;-87
2022/11/30 06:59:15;;;;;;;28.07;15.30;;;5.70;99.90;;;;;;6128192;23;20014;-87
2022/11/30 07:01:44;;;;;;;32.43;16.00;;;6.30;99.90;;;;;;6127992;23;20025;-87
2022/11/30 07:04:18;;;;;;;30.90;15.90;;;4.30;99.90;;;;;;6128286;23;20018;-88
2022/11/30 07:06:43;;;;;;;;;;;5.50;99.90;;;;;;6155832;23;20021;-87
2022/11/30 07:09:14;;;;;;;31.40;15.30;;;5.30;99.90;;;;;;6154704;23;20355;-85
2022/11/30 07:11:40;;;;;;;30.33;15.37;;;5.10;99.90;;;;;;6134630;23;20068;-85
2022/11/30 07:14:09;;;;;;;30.57;16.03;;;5.00;99.90;;;;;;6129481;23;20013;-85
2022/11/30 07:16:34;;;;;;;31.30;15.80;;;5.00;99.90;;;;;;6129364;23;20014;-85
2022/11/30 07:19:03;;;;;;;33.87;15.90;;;5.00;99.90;;;;;;6133858;23;20323;-85
2022/11/30 07:21:35;;;;;;;37.33;16.40;;;5.50;99.90;;;;;;6156077;23;20361;-85
2022/11/30 07:27:04;;;;;;;31.30;15.07;;;5.30;99.90;;;;;;6129515;23;20032;-84
2022/11/30 07:29:29;;;;;;;33.13;16.10;;;4.50;99.90;;;;;;6128684;23;20350;-85
2022/11/30 07:32:14;;;;;;;31.93;16.13;;;5.10;99.90;;;;;;6156244;23;20021;-85
2022/11/30 07:34:57;;;;;;;;;;;5.20;99.90;;;;;;6129962;23;20017;-85
2022/11/30 07:37:45;;;;;;;35.33;15.73;;;5.20;99.90;;;;;;6128255;23;19917;-85
2022/11/30 07:40:23;;;;;;;34.47;16.40;;;5.30;99.90;;;;;;6128704;23;20017;-85
2022/11/30 07:43:06;;;;;;;34.87;17.13;;;5.10;99.90;;;;;;6155047;23;20469;-84
2022/11/30 07:45:31;;;;;;;33.47;17.30;;;6.20;99.90;;;;;;6159155;23;20394;-85
2022/11/30 07:48:00;;;;;;;36.40;16.97;;;5.40;99.90;;;;;;6129563;23;20049;-85
2022/11/30 07:50:27;;;;;;;33.00;16.30;;;5.60;99.90;;;;;;6128394;23;20014;-85
2022/11/30 07:52:55;;;;;;;33.13;15.87;;;5.30;99.90;;;;;;6131411;23;20024;-84
2022/11/30 07:55:22;;;;;;;35.50;15.57;;;5.40;99.90;;;;;;6129460;23;20056;-84
2022/11/30 07:57:48;;;;;;;32.27;15.87;;;5.20;99.90;;;;;;6129119;23;20039;-86
2022/11/30 08:00:14;;;;;;;29.93;15.37;;;5.20;99.90;;;;;;6129084;23;20108;-85
2022/11/30 08:02:40;;;;;;;36.73;17.00;;;5.20;99.90;;;;;;6128719;23;20021;-85
2022/11/30 08:05:06;;;;;;;33.17;16.23;;;5.20;99.90;;;;;;6128678;23;20109;-86
2022/11/30 08:07:31;;;;;;;29.50;15.93;;;5.30;99.90;;;;;;6155891;23;20018;-86
2022/11/30 08:09:57;;;;;;;33.30;16.37;;;5.60;99.90;;;;;;6129203;23;20029;-84
2022/11/30 08:12:41;;;;;;;31.13;16.63;;;5.30;99.90;;;;;;6125215;23;20052;-86
2022/11/30 08:15:07;;;;;;;29.43;15.73;;;6.10;99.90;;;;;;6155678;23;20021;-86
2022/11/30 08:17:34;;;;;;;29.40;15.70;;;6.30;99.90;;;;;;6154805;23;20026;-86
2022/11/30 08:20:12;;;;;;;27.57;14.43;;;3.80;99.90;;;;;;6156157;23;20453;-86
2022/11/30 08:22:38;;;;;;;28.33;14.77;;;5.20;99.90;;;;;;6130787;23;20130;-86
2022/11/30 08:25:04;;;;;;;26.03;14.03;;;6.50;99.90;;;;;;6131509;23;20021;-86
2022/11/30 08:27:39;;;;;;;27.73;14.53;;;5.30;99.90;;;;;;6130941;23;20017;-86
2022/11/30 08:30:05;;;;;;;25.57;13.10;;;5.30;99.90;;;;;;6157767;23;20381;-86
2022/11/30 08:32:31;;;;;;;26.47;13.43;;;5.30;99.90;;;;;;6130426;23;20053;-86
2022/11/30 08:34:59;;;;;;;26.67;14.60;;;4.80;99.90;;;;;;6131785;23;20346;-86
2022/11/30 08:37:28;;;;;;;28.00;14.27;;;4.40;99.90;;;;;;6130410;23;20013;-86
2022/11/30 08:40:00;;;;;;;28.33;14.13;;;5.90;99.90;;;;;;6156920;23;20025;-86
2022/11/30 08:42:26;;;;;;;30.00;14.20;;;4.90;99.90;;;;;;6129490;23;20017;-86
2022/11/30 08:45:16;;;;;;;30.47;15.37;;;4.70;99.90;;;;;;6080373;23;20025;-86
2022/11/30 08:47:56;;;;;;;27.87;15.10;;;5.20;99.90;;;;;;6160022;23;20017;-87
2022/11/30 08:54:10;;;;;;;28.13;14.27;;;5.70;99.90;;;;;;6134690;23;20116;-87
2022/11/30 08:57:11;;;;;;;28.47;15.77;;;5.30;99.90;;;;;;6132136;23;20350;-87
2022/11/30 08:59:37;;;;;;;30.50;15.70;;;6.50;99.90;;;;;;6130641;23;20018;-87
2022/11/30 09:02:02;;;;;;;30.90;16.20;;;4.70;99.90;;;;;;6130594;23;20014;-87
2022/11/30 09:04:40;;;;;;;28.03;15.37;;;5.10;99.90;;;;;;6130764;23;20021;-87
2022/11/30 09:07:35;;;;;;;30.57;16.00;;;5.20;99.90;;;;;;6132670;23;20020;-87
2022/11/30 09:10:00;;;;;;;26.33;14.63;;;5.70;99.90;;;;;;6132376;23;20018;-87
2022/11/30 09:12:38;;;;;;;28.40;14.63;;;5.20;99.90;;;;;;6127525;23;20117;-86
2022/11/30 09:15:19;;;;;;;28.20;15.70;;;6.90;99.90;;;;;;6129280;23;20103;-86
2022/11/30 09:18:03;;;;;;;30.87;15.13;;;5.30;99.90;;;;;;6154987;23;20319;-86
2022/11/30 09:20:44;;;;;;;28.58;15.10;;;6.70;99.90;;;;;;6129824;23;20017;-86
2022/11/30 09:23:16;;;;;;;29.47;15.33;;;5.70;99.90;;;;;;6154113;23;20076;-86
2022/11/30 09:26:11;;;;;;;26.63;14.50;;;6.30;99.90;;;;;;6129334;23;20442;-86
2022/11/30 09:28:38;;;;;;;24.27;14.07;;;5.40;99.90;;;;;;6155955;23;20028;-86
2022/11/30 09:31:34;;;;;;;25.50;14.90;;;7.30;99.90;;;;;;6130370;23;20022;-86
2022/11/30 09:34:00;;;;;;;28.70;15.17;;;4.70;99.90;;;;;;6137623;23;20024;-86
2022/11/30 09:36:27;;;;;;;28.63;15.37;;;5.20;99.90;;;;;;6157057;23;20021;-86
2022/11/30 09:39:37;;;;;;;27.10;14.50;;;4.70;99.90;;;;;;6133310;23;20053;-86
2022/11/30 09:42:36;;;;;;;26.47;14.60;;;5.90;99.90;;;;;;6137138;23;20044;-86
2022/11/30 09:52:03;;;;;;;26.00;14.77;;;5.40;99.90;;;;;;6041540;23;20033;-86
2022/11/30 09:59:12;;;;;;;26.85;13.48;;;5.50;99.90;;;;;;6036087;23;20136;-87
2022/11/30 10:01:47;;;;;;;23.77;13.43;;;5.60;99.90;;;;;;6037345;23;20023;-88
2022/11/30 10:04:58;;;;;;;22.50;12.87;;;5.20;99.90;;;;;;6036312;23;20058;-89
2022/11/30 10:08:06;;;;;;;22.50;13.20;;;5.30;99.90;;;;;;5951451;24;20048;-87
2022/11/30 10:11:04;;;;;;;23.80;13.50;;;5.60;99.90;;;;;;5980621;24;20027;-87
2022/11/30 10:14:07;;;;;;;22.57;13.57;;;6.90;99.90;;;;;;5957262;24;20020;-87
2022/11/30 10:21:10;;;;;;;24.33;13.93;;;5.60;99.90;;;;;;6075438;23;20030;-89
2022/11/30 10:27:15;;;;;;;26.53;14.70;;;5.70;99.90;;;;;;6036415;23;19975;-90
2022/11/30 10:29:44;;;;;;;26.47;14.77;;;5.40;99.90;;;;;;6129391;23;20349;-88
2022/11/30 10:36:09;;;;;;;25.02;13.98;;;5.50;99.90;;;;;;6111715;23;20033;-89
2022/11/30 10:38:48;;;;;;;27.27;15.20;;;6.00;99.90;;;;;;6155631;23;20021;-86
2022/11/30 10:41:49;;;;;;;26.30;14.77;;;6.60;99.90;;;;;;6155022;23;20442;-85
2022/11/30 10:44:42;;;;;;;25.83;14.60;;;5.20;99.90;;;;;;6076329;23;20057;-86
2022/11/30 10:53:42;;;;;;;26.57;14.67;;;5.60;99.90;;;;;;6158123;23;20040;-85
2022/11/30 10:56:21;;;;;;;;;;;5.40;99.90;;;;;;6129801;23;20345;-86
2022/11/30 10:59:29;;;;;;;24.63;14.00;;;5.50;99.90;;;;;;6129286;23;20411;-85
2022/11/30 11:01:54;;;;;;;26.33;14.93;;;5.50;99.90;;;;;;6129326;23;20031;-86
2022/11/30 11:04:22;;;;;;;26.10;14.43;;;5.30;99.90;;;;;;6155315;23;20048;-86
2022/11/30 11:07:27;;;;;;;23.43;13.80;;;6.50;99.90;;;;;;6129402;23;20454;-86
2022/11/30 11:10:11;;;;;;;;;;;5.60;99.90;;;;;;6130005;23;20135;-86
2022/11/30 11:12:54;;;;;;;27.23;15.07;;;5.80;99.90;;;;;;6155856;23;19916;-86
2022/11/30 11:15:31;;;;;;;26.67;15.03;;;7.40;99.90;;;;;;6128973;23;20374;-86
2022/11/30 11:18:15;;;;;;;25.20;14.97;;;5.50;99.90;;;;;;6154856;23;20100;-87
2022/11/30 11:20:43;;;;;;;;;;;5.30;99.90;;;;;;6155154;23;20024;-87
2022/11/30 11:23:46;;;;;;;27.77;16.50;;;5.80;99.90;;;;;;6132262;23;19924;-87
2022/11/30 11:26:18;;;;;;;29.10;17.63;;;6.50;99.90;;;;;;6130716;23;20069;-87
2022/11/30 11:28:48;;;;;;;33.17;17.67;;;5.60;99.90;;;;;;6128888;23;20102;-87
2022/11/30 11:31:47;;;;;;;31.23;17.23;;;5.70;99.90;;;;;;6159592;23;20013;-88
2022/11/30 11:34:38;;;;;;;30.67;17.50;;;5.10;99.90;;;;;;6155612;23;20022;-87
2022/11/30 11:37:57;;;;;;;;;;;;;;;;;;;;;
2022/11/30 11:42:10;;;;;;;;;;;;;;;;;;;;;
2022/11/30 11:49:37;;;;;;;30.27;16.97;;;6.00;99.90;;;;;;5902152;24;20029;-89
2022/11/30 11:52:41;;;;;;;32.67;19.50;;;6.10;99.90;;;;;;5949504;23;20420;-90
2022/11/30 11:56:11;;;;;;;32.37;17.53;;;7.10;99.90;;;;;;6015139;23;20027;-89
2022/11/30 11:59:04;;;;;;;32.00;17.27;;;5.90;99.90;;;;;;6008924;23;20015;-89
2022/11/30 12:12:44;;;;;;;;;;;;;;;;;;;;;
2022/11/30 12:16:04;;;;;;;44.97;22.20;;;4.70;99.90;;;;;;6080238;23;20032;-89
2022/11/30 12:19:00;;;;;;;46.43;23.43;;;6.20;99.90;;;;;;6156444;23;20441;-89
2022/11/30 12:26:02;;;;;;;42.33;21.97;;;5.70;99.90;;;;;;6037901;23;20452;-89
2022/11/30 12:29:12;;;;;;;;;;;;;;;;;;;;;
2022/11/30 13:20:34;;;;;;;46.65;22.80;;;7.10;99.90;;;;;;5920078;24;20030;-89
2022/11/30 13:23:43;;;;;;;43.03;22.40;;;5.40;99.90;;;;;;5848811;24;20487;-89
2022/11/30 13:30:20;;;;;;;45.87;21.93;;;5.40;99.90;;;;;;5871006;24;20097;-89
2022/11/30 14:18:23;;;;;;;;;;;;;;;;;;;;;
2022/11/30 14:21:47;;;;;;;57.03;26.63;;;5.00;99.90;;;;;;5985749;23;20355;-89
2022/11/30 14:38:33;;;;;;;58.23;26.03;;;5.50;99.90;;;;;;6141599;23;20025;-90
2022/11/30 14:57:10;;;;;;;67.73;28.37;;;4.70;99.90;;;;;;6052874;23;20068;-88
2022/11/30 15:12:27;;;;;;;79.63;27.83;;;5.90;99.90;;;;;;5950506;24;20024;-90
